Beechmont, Kentucky
Current Conditions -  °F | °C
As of 12:55 AM on Monday 24 Nov 2014 (Local Time) from K2I0 Reporting Station
Overcast Overcast  
Wind Chill: 62°   Ceiling: 1700
Heat Index: 62°   Visibility: 10mi
Dew Point: 59°   Wind: 16mph
Humidity: 90%   Direction: 210°SSW
Pressure: 29.35"   Gusts: 21mph
Location:  37.17°N, 87.04°W
Report Text: K2I0 240655Z AUTO 21014G18KT 10SM OVC017 17/15 A2935 RMK AO2 T01690152
Loading
Personal Weather Stations






























Interactive Weather Map New forecast layout! Learn more

10-Day Weather Forecast

Advertisements
Track Severe Weather on mobile